الصفحة الرئيسية
METAR-TAF:

METAR-TAF

مطار :

مطار الكويت الدولي

مدينة الكويت, الكويت

دائرة عرض: 29-13N, خط طول: 047-59E, ارتفاع: 55 متر

مراقبة الطقس الحالي

تاريخ ووقت الإصدار 55 دقيقة قبل الساعة 04:00UTC
ريح 11 عقدة من الشمال/الشمال الغربي
درجة الحرارة 39°درجة مئوية
الرطوبة 16%
ضغط 1001 hPa
الرؤية 10 كم أو أكثر
الغيوم لا تقل 1500 م ولا وجود لمزنة ركامية السحاب الأسود

METAR: OKKK 190400Z 34011KT CAVOK 39/09 Q1001 NOSIG

زمن: 07:55 (04:55 UTC)

توقعات

تاريخ ووقت الإصدار 11ساعات و 55 دقيقة قبل الساعة 17:00UTC
التوقعات صالحة من18 الساعة 18 UTC إلى 19 الساعة 24 UTC
ريح 12 عقدة من الشمال
الرؤية: 7000 متر
مؤقت
من 18 الساعة 18 UTC إلى 19 الساعة 04 UTC
ريح 3 عقدةمن اتجاهات متغيرة

TAF: OKKK 181700Z 1818/1924 35012KT 7000 NSC TEMPO 1818/1904 VRB03KT

أرصاد الطقس والتوقعات من أكثر من 4000 مطار (تقارير الطقس للمطار METAR والتنبؤ بالطقس بالمطارTAF).

المحطات المتاحة هي النقط الصفراء والحمراء على الخريطة.

حرك المؤشر فوق النقطة لمعرفة اسم المحطة.

ثم انقر لمعرفة أرصاد وتوقعات الطقس.

لتغيير الخارطة: اضغط على الأزرار الخضراء مع رمز الصليب الأسود للتكبير. على الزر الأخضر مع شرطة للتصغير، أو على الأسهم الخضراء للخرائط المجاورة.


METAR-TAF: